createdAt,value
2019-02-24T00:03:14.527Z,14.60
2019-02-24T00:08:20.036Z,7.93
2019-02-24T00:13:24.958Z,6.90
2019-02-24T00:18:29.680Z,16.40
2019-02-24T00:23:34.525Z,12.93
2019-02-24T00:28:39.472Z,14.43
2019-02-24T00:33:44.930Z,24.37
2019-02-24T00:38:49.777Z,14.27
2019-02-24T00:43:54.851Z,13.47
2019-02-24T00:48:59.750Z,18.93
2019-02-24T00:54:04.717Z,12.60
2019-02-24T00:59:10.584Z,14.77
2019-02-24T01:04:15.460Z,21.77
2019-02-24T01:09:20.375Z,42.23
2019-02-24T01:14:25.155Z,44.67
2019-02-24T01:19:29.974Z,57.73
2019-02-24T01:24:34.706Z,31.13
2019-02-24T01:29:40.880Z,43.50
2019-02-24T01:34:45.725Z,17.17
2019-02-24T01:39:50.393Z,27.80
2019-02-24T01:44:55.148Z,24.30
2019-02-24T01:49:59.757Z,23.90
2019-02-24T01:55:04.690Z,22.03
2019-02-24T02:00:10.671Z,23.93
2019-02-24T02:05:15.754Z,23.30
2019-02-24T02:10:20.646Z,26.33
2019-02-24T02:15:25.405Z,27.83
2019-02-24T02:20:30.149Z,27.33
2019-02-24T02:25:35.811Z,24.13
2019-02-24T02:30:40.557Z,26.43
2019-02-24T02:35:45.296Z,30.57
2019-02-24T02:40:49.955Z,19.53
2019-02-24T02:45:54.785Z,16.87
2019-02-24T02:50:59.435Z,14.83
2019-02-24T02:56:04.163Z,29.80
2019-02-24T03:01:09.019Z,35.77
2019-02-24T03:06:27.579Z,23.30
2019-02-24T03:11:34.336Z,23.97
2019-02-24T03:16:39.106Z,16.23
2019-02-24T03:21:43.949Z,16.10
2019-02-24T03:26:48.697Z,13.93
2019-02-24T03:31:53.538Z,21.00
2019-02-24T03:36:58.275Z,23.57
2019-02-24T03:42:04.041Z,25.93
2019-02-24T03:47:09.925Z,13.40
2019-02-24T03:52:15.780Z,13.13
2019-02-24T03:57:20.525Z,7.90
2019-02-24T04:02:25.263Z,9.07
2019-02-24T04:07:30.005Z,17.23
2019-02-24T04:12:34.749Z,19.70
2019-02-24T04:17:41.134Z,14.13
2019-02-24T04:22:46.029Z,12.60
2019-02-24T04:27:50.824Z,11.70
2019-02-24T04:32:55.565Z,12.97
2019-02-24T04:38:01.433Z,13.00
2019-02-24T04:43:06.072Z,17.60
2019-02-24T04:48:10.815Z,15.23
2019-02-24T04:53:16.541Z,18.50
2019-02-24T04:58:21.318Z,18.53
2019-02-24T05:03:26.065Z,19.43
2019-02-24T05:08:30.809Z,11.50
2019-02-24T05:13:35.554Z,19.73
2019-02-24T05:18:40.209Z,32.90
2019-02-24T05:23:44.928Z,21.10
2019-02-24T05:28:49.773Z,23.57
2019-02-24T05:33:54.513Z,42.23
2019-02-24T05:38:59.619Z,35.00
2019-02-24T05:44:04.409Z,56.40
2019-02-24T05:49:09.159Z,40.10
2019-02-24T05:54:13.894Z,43.13
2019-02-24T05:59:18.640Z,57.63
2019-02-24T06:04:23.377Z,49.50
2019-02-24T06:09:29.000Z,68.30
2019-02-24T06:14:33.668Z,24.43
2019-02-24T06:19:38.319Z,32.20
2019-02-24T06:24:42.925Z,28.33
2019-02-24T06:29:47.480Z,24.70
2019-02-24T06:34:52.146Z,25.30
2019-02-24T06:39:56.739Z,20.13
2019-02-24T06:45:02.342Z,12.73
2019-02-24T06:50:10.559Z,14.17
2019-02-24T06:55:15.929Z,14.83
2019-02-24T07:00:20.768Z,9.10
2019-02-24T07:05:25.403Z,13.53
2019-02-24T07:10:30.418Z,17.73
2019-02-24T07:15:35.198Z,17.33
2019-02-24T07:20:39.935Z,16.60
2019-02-24T07:25:45.816Z,19.77
2019-02-24T07:30:50.652Z,19.73
2019-02-24T07:35:55.413Z,16.97
2019-02-24T07:41:00.035Z,14.30
2019-02-24T07:46:04.775Z,22.90
2019-02-24T07:51:09.555Z,31.43
2019-02-24T07:56:14.108Z,37.03
2019-02-24T08:01:19.924Z,25.87
2019-02-24T08:06:25.184Z,26.00
2019-02-24T08:11:30.121Z,21.20
2019-02-24T08:16:35.140Z,20.77
2019-02-24T08:21:39.812Z,27.00
2019-02-24T08:26:44.654Z,33.77
2019-02-24T08:31:51.041Z,26.87
2019-02-24T08:36:55.683Z,18.00
2019-02-24T08:42:03.069Z,20.60
2019-02-24T08:47:07.826Z,18.37
2019-02-24T08:52:12.480Z,17.90
2019-02-24T08:57:18.340Z,13.70
2019-02-24T09:02:23.133Z,18.20
2019-02-24T09:07:27.923Z,16.67
2019-02-24T09:12:33.501Z,37.53
2019-02-24T09:17:38.540Z,27.27
2019-02-24T09:22:43.187Z,10.43
2019-02-24T09:27:48.271Z,18.23
2019-02-24T09:32:53.067Z,8.77
2019-02-24T09:37:57.911Z,11.97
2019-02-24T09:43:02.762Z,18.37
2019-02-24T09:48:08.562Z,10.00
2019-02-24T09:53:13.395Z,8.70
2019-02-24T09:58:18.733Z,14.20
2019-02-24T10:03:24.529Z,7.67
2019-02-24T10:08:30.999Z,19.43
2019-02-24T10:13:35.946Z,7.80
2019-02-24T10:18:41.745Z,12.20
2019-02-24T10:23:47.064Z,11.73
2019-02-24T10:28:52.675Z,9.47
2019-02-24T10:33:57.794Z,11.80
2019-02-24T10:39:02.653Z,8.00
2019-02-24T10:44:08.987Z,7.47
2019-02-24T10:49:14.611Z,8.53
2019-02-24T10:54:19.388Z,7.03
2019-02-24T10:59:24.031Z,8.20
2019-02-24T11:04:28.772Z,5.60
2019-02-24T11:09:33.515Z,14.47
2019-02-24T11:14:38.467Z,8.37
2019-02-24T11:19:44.638Z,7.83
2019-02-24T11:24:49.586Z,10.70
2019-02-24T11:29:54.398Z,9.47
2019-02-24T11:34:59.201Z,8.80
2019-02-24T11:40:04.427Z,8.40
2019-02-24T11:45:10.049Z,9.87
2019-02-24T11:50:14.845Z,9.57
2019-02-24T11:55:19.587Z,16.03
2019-02-24T12:00:24.319Z,8.90
2019-02-24T12:05:29.063Z,8.63
2019-02-24T12:10:33.707Z,8.33
2019-02-24T12:15:39.499Z,18.03
2019-02-24T12:20:47.923Z,13.23
2019-02-24T12:25:52.679Z,8.13
2019-02-24T12:30:59.423Z,8.47
2019-02-24T12:36:05.504Z,7.83
2019-02-24T12:41:11.272Z,6.20
2019-02-24T12:46:16.008Z,8.33
2019-02-24T12:51:20.753Z,16.63
2019-02-24T12:56:25.515Z,12.97
2019-02-24T13:01:30.557Z,5.83
2019-02-24T13:06:36.635Z,6.27
2019-02-24T13:11:42.808Z,6.63
2019-02-24T13:16:48.586Z,10.40
2019-02-24T13:21:53.406Z,10.00
2019-02-24T13:26:58.354Z,11.40
2019-02-24T13:32:03.215Z,10.67
2019-02-24T13:37:08.051Z,15.97
2019-02-24T13:42:12.792Z,10.13
2019-02-24T13:47:17.514Z,13.30
2019-02-24T13:52:22.478Z,9.47
2019-02-24T13:57:27.123Z,23.10
2019-02-24T14:02:32.256Z,11.17
2019-02-24T14:07:37.015Z,10.70
2019-02-24T14:12:41.761Z,8.93
2019-02-24T14:17:46.514Z,10.40
2019-02-24T14:22:52.776Z,13.47
2019-02-24T14:27:57.621Z,14.27
2019-02-24T14:33:02.804Z,15.77
2019-02-24T14:38:09.374Z,15.53
2019-02-24T14:43:14.099Z,21.90
2019-02-24T14:48:18.840Z,10.10
2019-02-24T14:53:25.249Z,15.27
2019-02-24T14:58:30.026Z,24.87
2019-02-24T15:03:35.019Z,10.40
2019-02-24T15:08:39.753Z,10.83
2019-02-24T15:13:44.465Z,20.65
2019-02-24T15:18:50.135Z,10.57
2019-02-24T15:23:57.629Z,14.30
2019-02-24T15:29:04.721Z,13.10
2019-02-24T15:34:10.012Z,12.17
2019-02-24T15:39:14.763Z,14.47
2019-02-24T15:44:20.742Z,16.80
2019-02-24T15:49:25.723Z,17.23
2019-02-24T15:54:30.630Z,14.50
2019-02-24T15:59:35.376Z,15.67
2019-02-24T16:04:40.845Z,11.07
2019-02-24T16:09:45.785Z,25.97
2019-02-24T16:14:51.985Z,12.00
2019-02-24T16:19:56.697Z,22.23
2019-02-24T16:25:02.538Z,14.17
2019-02-24T16:30:13.558Z,8.40
2019-02-24T16:35:20.263Z,12.03
2019-02-24T16:40:28.977Z,10.37
2019-02-24T16:45:33.976Z,9.93
2019-02-24T16:50:38.768Z,11.23
2019-02-24T16:55:44.142Z,12.50
2019-02-24T17:00:49.235Z,15.10
2019-02-24T17:05:57.202Z,16.83
2019-02-24T17:11:07.343Z,16.77
2019-02-24T17:16:08.221Z,40.87
2019-02-24T17:21:14.295Z,23.17
2019-02-24T17:26:19.137Z,26.50
2019-02-24T17:31:28.291Z,17.00
2019-02-24T17:36:30.260Z,9.90
2019-02-24T17:41:35.210Z,22.80
2019-02-24T17:46:40.060Z,38.77
2019-02-24T17:51:45.216Z,48.70
2019-02-24T17:56:51.091Z,32.97
2019-02-24T18:01:56.023Z,27.93
2019-02-24T18:07:00.756Z,24.90
2019-02-24T18:12:06.626Z,21.17
2019-02-24T18:17:11.363Z,51.83
2019-02-24T18:22:16.213Z,40.77
2019-02-24T18:27:21.064Z,20.67
2019-02-24T18:32:27.034Z,17.60
2019-02-24T18:37:31.773Z,24.27
2019-02-24T18:42:36.617Z,12.80
2019-02-24T18:47:41.366Z,8.07
2019-02-24T18:52:46.306Z,22.30
2019-02-24T18:57:51.159Z,21.93
2019-02-24T19:02:57.223Z,67.37
2019-02-24T19:08:01.877Z,61.53
2019-02-24T19:13:06.519Z,36.10
2019-02-24T19:18:11.241Z,24.77
2019-02-24T19:23:16.090Z,40.27
2019-02-24T19:28:20.731Z,51.60
2019-02-24T19:33:25.390Z,55.30
2019-02-24T19:38:30.115Z,30.90
2019-02-24T19:43:34.854Z,22.97
2019-02-24T19:48:41.996Z,29.97
2019-02-24T19:53:45.975Z,57.07
2019-02-24T19:58:50.718Z,99.17
2019-02-24T20:03:55.465Z,58.97
2019-02-24T20:09:01.481Z,22.33
2019-02-24T20:14:07.823Z,18.97
2019-02-24T20:19:12.879Z,22.37
2019-02-24T20:24:18.572Z,35.77
2019-02-24T20:29:24.761Z,30.67
2019-02-24T20:34:32.276Z,29.90
2019-02-24T20:39:37.928Z,22.70
2019-02-24T20:44:44.258Z,20.87
2019-02-24T20:49:49.453Z,19.17
2019-02-24T20:54:54.708Z,23.40
2019-02-24T20:59:59.521Z,29.40
2019-02-24T21:05:04.998Z,40.37
2019-02-24T21:10:11.470Z,38.73
2019-02-24T21:15:17.541Z,27.97
2019-02-24T21:20:27.591Z,45.73
2019-02-24T21:25:36.461Z,37.20
2019-02-24T21:30:44.466Z,31.10
2019-02-24T21:35:53.824Z,37.87
2019-02-24T21:41:00.561Z,33.30
2019-02-24T21:46:05.397Z,30.10
2019-02-24T21:51:10.276Z,31.63
2019-02-24T21:56:14.972Z,30.33
2019-02-24T22:01:19.667Z,24.97
2019-02-24T22:06:25.272Z,34.27
2019-02-24T22:11:29.977Z,25.10
2019-02-24T22:16:34.604Z,21.90
2019-02-24T22:21:39.339Z,22.07
2019-02-24T22:26:44.005Z,34.50
2019-02-24T22:31:48.620Z,26.60
2019-02-24T22:36:53.268Z,21.53
2019-02-24T22:41:58.003Z,31.43
2019-02-24T22:47:02.646Z,35.40
2019-02-24T22:52:07.300Z,29.83
2019-02-24T22:57:11.898Z,35.73
2019-02-24T23:02:16.771Z,28.83
2019-02-24T23:07:23.147Z,26.87
2019-02-24T23:12:27.890Z,35.03
2019-02-24T23:17:32.630Z,33.00
2019-02-24T23:22:39.014Z,36.47
2019-02-24T23:27:43.861Z,23.23
2019-02-24T23:32:48.494Z,22.10
2019-02-24T23:37:53.140Z,22.83
2019-02-24T23:42:57.879Z,27.00
2019-02-24T23:48:02.618Z,21.70
2019-02-24T23:53:07.258Z,17.17
2019-02-24T23:58:12.103Z,22.97
